Darstellungsparameter: Aktuell verwendete Einstellungen:
Skalierung der Graphiken ... ?
xyx+y,   Skalierungsfaktor:      Skalierung: Modus: x, Faktor: 1
Darstellungszeitraum ... ?
Vom - - bis: - -   Zeitraum: 08.09.2016 - 08.09.2016
Min/Max/Avg-Anzeige ... ?
Zeige MMA aktuell
Zeige MMA Monat
Zeige MMA alles
Zeige --A aktuell
Zeige --A Monat
Zeige --A alles
Keine MMA-Anzeige
MMA:
Average (ber die Originaldaten)
MMA-Basis: 08.09.2016 - 08.09.2016
Quicknavigation für Darstellung... ?
Tage:      1T, 2T, 3T, 5T -1T -2T -3T -5T +1T +2T +3T +5T
Wochen: 1W, 2W, 3W -1W -2W -3W +1W +2W +3W
Monate: 1M, 3M, 6M -1M -3M -6M +1M +3M +6M
Jahre:    1J, 3J, 5J, 10J -1J -3J -5J -10J +1J +3J +5J +10J
Nutze für die Darstellung ... ?
Originaldaten oder Mittelwerte auf ...
Stundenbasis Tagesbasis Wochenbasis
Monatsbasis Jahresbasis      Datenbasis: Original-Daten
Darstellen als:
Statistik (Auto) Statistik J:M      Darstellung:
Zur Graphik,    zurück zur Übersicht aller Sensoren.
 
Tabellarische Datenbersicht: ?
 
Sensor: Nr:Datum:Temp:Abs-Feuchte:Windchill:Wind:
Aussen-T/F 1 08-09-2016 00:00:00 16.3 C 12.21 g/m*3 16.3 C 0 km/h
2 08-09-2016 00:05:00 16.3 C 12.21 g/m*3 16.3 C 0 km/h
3 08-09-2016 00:10:00 16.2 C 12.27 g/m*3 16.2 C 0 km/h
4 08-09-2016 00:15:00 16.1 C 12.2 g/m*3 16.1 C 0 km/h
5 08-09-2016 00:20:00 15.9 C 12.05 g/m*3 15.9 C 0 km/h
6 08-09-2016 00:25:00 15.8 C 11.98 g/m*3 15.8 C 0 km/h
7 08-09-2016 00:30:00 15.8 C 11.98 g/m*3 15.8 C 0 km/h
8 08-09-2016 00:35:00 15.7 C 12.04 g/m*3 15.7 C 0 km/h
9 08-09-2016 00:40:00 15.6 C 11.97 g/m*3 15.6 C 0 km/h
10 08-09-2016 00:45:00 15.6 C 11.97 g/m*3 15.6 C 0 km/h
11 08-09-2016 00:50:00 15.5 C 11.9 g/m*3 15.5 C 0 km/h
12 08-09-2016 00:55:00 15.4 C 11.82 g/m*3 15.4 C 0 km/h
13 08-09-2016 01:00:00 15.4 C 11.96 g/m*3 15.4 C 0 km/h
14 08-09-2016 01:05:00 15.3 C 11.75 g/m*3 15.3 C 0 km/h
15 08-09-2016 01:10:00 15.3 C 11.88 g/m*3 15.3 C 0 km/h
16 08-09-2016 01:15:00 15.2 C 11.81 g/m*3 15.2 C 0 km/h
17 08-09-2016 01:20:00 15.2 C 11.81 g/m*3 15.2 C 0 km/h
18 08-09-2016 01:25:00 15.2 C 11.81 g/m*3 15.2 C 0 km/h
19 08-09-2016 01:30:00 15.1 C 11.74 g/m*3 15.1 C 0 km/h
20 08-09-2016 01:35:00 15 C 11.67 g/m*3 15 C 0 km/h
21 08-09-2016 01:40:00 15 C 11.8 g/m*3 15 C 0 km/h
22 08-09-2016 01:45:00 15 C 11.8 g/m*3 15 C 0 km/h
23 08-09-2016 01:50:00 14.9 C 11.73 g/m*3 14.9 C 0 km/h
24 08-09-2016 01:55:00 14.9 C 11.73 g/m*3 14.9 C 0 km/h
25 08-09-2016 02:00:00 14.8 C 11.65 g/m*3 14.8 C 0 km/h
Sensor: Nr:Datum:Temp:Abs-Feuchte:Windchill:Wind:
Aussen-T/F 26 08-09-2016 02:05:00 14.8 C 11.65 g/m*3 14.8 C 0 km/h
27 08-09-2016 02:10:00 14.7 C 11.58 g/m*3 14.7 C 0 km/h
28 08-09-2016 02:15:00 14.7 C 11.58 g/m*3 14.7 C 0 km/h
29 08-09-2016 02:20:00 14.7 C 11.71 g/m*3 14.7 C 0 km/h
30 08-09-2016 02:25:00 14.7 C 11.71 g/m*3 14.7 C 0 km/h
31 08-09-2016 02:30:00 14.6 C 11.64 g/m*3 14.6 C 0 km/h
32 08-09-2016 02:35:00 14.5 C 11.44 g/m*3 14.5 C 0 km/h
33 08-09-2016 02:40:00 14.5 C 11.57 g/m*3 14.5 C 0 km/h
34 08-09-2016 02:45:00 14.6 C 11.64 g/m*3 14.6 C 0 km/h
35 08-09-2016 02:50:00 14.5 C 11.57 g/m*3 14.5 C 0 km/h
36 08-09-2016 02:55:00 14.4 C 11.5 g/m*3 14.4 C 0 km/h
37 08-09-2016 03:00:00 14.3 C 11.43 g/m*3 14.3 C 0 km/h
38 08-09-2016 03:05:00 14.3 C 11.43 g/m*3 14.3 C 0 km/h
39 08-09-2016 03:10:00 14.2 C 11.36 g/m*3 14.2 C 0 km/h
40 08-09-2016 03:15:00 14.2 C 11.36 g/m*3 14.2 C 0 km/h
41 08-09-2016 03:20:00 14.2 C 11.36 g/m*3 14.2 C 0 km/h
42 08-09-2016 03:25:00 14.1 C 11.29 g/m*3 14.1 C 0 km/h
43 08-09-2016 03:30:00 14 C 11.22 g/m*3 14 C 0 km/h
44 08-09-2016 03:35:00 14 C 11.22 g/m*3 14 C 0 km/h
45 08-09-2016 03:40:00 14 C 11.34 g/m*3 14 C 0 km/h
46 08-09-2016 03:45:00 14.1 C 11.41 g/m*3 14.1 C 0 km/h
47 08-09-2016 03:50:00 14.2 C 11.48 g/m*3 14.2 C 0 km/h
48 08-09-2016 03:55:00 14.1 C 11.41 g/m*3 14.1 C 0 km/h
49 08-09-2016 04:00:00 13.9 C 11.15 g/m*3 13.9 C 0 km/h
50 08-09-2016 04:05:00 13.8 C 11.2 g/m*3 13.8 C 0 km/h
Sensor: Nr:Datum:Temp:Abs-Feuchte:Windchill:Wind:
Aussen-T/F 51 08-09-2016 04:10:00 13.8 C 11.2 g/m*3 13.8 C 0 km/h
52 08-09-2016 04:15:00 13.8 C 11.2 g/m*3 13.8 C 0 km/h
53 08-09-2016 04:20:00 13.8 C 11.2 g/m*3 13.8 C 0 km/h
54 08-09-2016 04:25:00 13.8 C 11.2 g/m*3 13.8 C 0 km/h
55 08-09-2016 04:30:00 13.8 C 11.2 g/m*3 13.8 C 0 km/h
56 08-09-2016 04:35:00 13.7 C 11.13 g/m*3 13.7 C 0 km/h
57 08-09-2016 04:40:00 13.7 C 11.13 g/m*3 13.7 C 3.2 km/h
58 08-09-2016 04:45:00 13.8 C 11.2 g/m*3 13.8 C 1.6 km/h
59 08-09-2016 04:50:00 13.9 C 11.39 g/m*3 13.9 C 0 km/h
60 08-09-2016 04:55:00 13.8 C 11.2 g/m*3 13.8 C 0 km/h
61 08-09-2016 05:00:00 13.7 C 11.13 g/m*3 13.7 C 1.6 km/h
62 08-09-2016 05:05:00 13.6 C 11.06 g/m*3 13.6 C 0 km/h
63 08-09-2016 05:10:00 13.5 C 10.99 g/m*3 13.5 C 0 km/h
64 08-09-2016 05:15:00 13.4 C 10.93 g/m*3 13.4 C 3.2 km/h
65 08-09-2016 05:20:00 13.4 C 11.04 g/m*3 13.4 C 0 km/h
66 08-09-2016 05:25:00 13.6 C 11.18 g/m*3 13.6 C 1.6 km/h
67 08-09-2016 05:30:00 13.7 C 11.25 g/m*3 13.7 C 0 km/h
68 08-09-2016 05:35:00 13.7 C 11.25 g/m*3 13.7 C 0 km/h
69 08-09-2016 05:40:00 13.7 C 11.25 g/m*3 13.7 C 1.6 km/h
70 08-09-2016 05:45:00 13.7 C 11.25 g/m*3 13.7 C 1.6 km/h
71 08-09-2016 05:50:00 13.6 C 11.06 g/m*3 13.6 C 3.2 km/h
72 08-09-2016 05:55:00 13.5 C 10.99 g/m*3 13.5 C 0 km/h
73 08-09-2016 06:00:00 13.4 C 10.93 g/m*3 13.4 C 0 km/h
74 08-09-2016 06:05:00 13.4 C 10.93 g/m*3 13.4 C 0 km/h
75 08-09-2016 06:10:00 13.3 C 10.86 g/m*3 13.3 C 0 km/h
Sensor: Nr:Datum:Temp:Abs-Feuchte:Windchill:Wind:
Aussen-T/F 76 08-09-2016 06:15:00 13.1 C 10.73 g/m*3 13.1 C 0 km/h
77 08-09-2016 06:20:00 13.1 C 10.73 g/m*3 13.1 C 0 km/h
78 08-09-2016 06:25:00 13.1 C 10.73 g/m*3 13.1 C 0 km/h
79 08-09-2016 06:30:00 13.2 C 10.91 g/m*3 13.2 C 0 km/h
80 08-09-2016 06:35:00 13.2 C 10.91 g/m*3 13.2 C 0 km/h
81 08-09-2016 06:40:00 13.1 C 10.84 g/m*3 13.1 C 0 km/h
82 08-09-2016 06:45:00 13.1 C 10.73 g/m*3 13.1 C 0 km/h
83 08-09-2016 06:50:00 12.9 C 10.59 g/m*3 12.9 C 0 km/h
84 08-09-2016 06:55:00 12.9 C 10.59 g/m*3 12.9 C 0 km/h
85 08-09-2016 07:00:00 12.8 C 10.53 g/m*3 12.8 C 0 km/h
86 08-09-2016 07:05:00 12.8 C 10.64 g/m*3 12.8 C 0 km/h
87 08-09-2016 07:10:00 12.8 C 10.64 g/m*3 12.8 C 0 km/h
88 08-09-2016 07:15:00 12.8 C 10.64 g/m*3 12.8 C 3.2 km/h
89 08-09-2016 07:20:00 12.8 C 10.64 g/m*3 12.8 C 0 km/h
90 08-09-2016 07:25:00 12.8 C 10.64 g/m*3 12.8 C 0 km/h
91 08-09-2016 07:30:00 12.8 C 10.64 g/m*3 12.8 C 0 km/h
92 08-09-2016 07:35:00 12.9 C 10.71 g/m*3 12.9 C 0 km/h
93 08-09-2016 07:40:00 12.9 C 10.71 g/m*3 12.9 C 0 km/h
94 08-09-2016 07:45:00 12.9 C 10.71 g/m*3 12.9 C 0 km/h
95 08-09-2016 07:50:00 12.9 C 10.71 g/m*3 12.9 C 0 km/h
96 08-09-2016 07:55:00 12.9 C 10.71 g/m*3 12.9 C 0 km/h
97 08-09-2016 08:00:00 12.9 C 10.71 g/m*3 12.9 C 0 km/h
98 08-09-2016 08:05:00 13 C 10.77 g/m*3 13 C 0 km/h
99 08-09-2016 08:10:00 13.1 C 10.84 g/m*3 13.1 C 0 km/h
100 08-09-2016 08:15:00 13.2 C 10.91 g/m*3 13.2 C 0 km/h
Sensor: Nr:Datum:Temp:Abs-Feuchte:Windchill:Wind:
Aussen-T/F 101 08-09-2016 08:20:00 13.2 C 10.91 g/m*3 13.2 C 0 km/h
102 08-09-2016 08:25:00 13.3 C 11.09 g/m*3 13.3 C 0 km/h
103 08-09-2016 08:30:00 13.3 C 11.09 g/m*3 13.3 C 0 km/h
104 08-09-2016 08:35:00 13.3 C 10.98 g/m*3 13.3 C 0 km/h
105 08-09-2016 08:40:00 13.3 C 10.98 g/m*3 13.3 C 0 km/h
106 08-09-2016 08:45:00 13.4 C 11.16 g/m*3 13.4 C 0 km/h
107 08-09-2016 08:50:00 13.4 C 11.16 g/m*3 13.4 C 0 km/h
108 08-09-2016 08:55:00 13.5 C 11.23 g/m*3 13.5 C 0 km/h
109 08-09-2016 09:00:00 13.6 C 11.3 g/m*3 13.6 C 0 km/h
110 08-09-2016 09:05:00 13.7 C 11.37 g/m*3 13.7 C 0 km/h
111 08-09-2016 09:10:00 13.8 C 11.44 g/m*3 13.8 C 0 km/h
112 08-09-2016 09:15:00 13.9 C 11.51 g/m*3 13.9 C 0 km/h
113 08-09-2016 09:20:00 14.1 C 11.65 g/m*3 14.1 C 0 km/h
114 08-09-2016 09:25:00 14.2 C 11.72 g/m*3 14.2 C 0 km/h
115 08-09-2016 09:30:00 14.3 C 11.79 g/m*3 14.3 C 0 km/h
116 08-09-2016 09:35:00 14.4 C 11.87 g/m*3 14.4 C 0 km/h
117 08-09-2016 09:40:00 14.5 C 11.94 g/m*3 14.5 C 0 km/h
118 08-09-2016 09:45:00 14.6 C 12.01 g/m*3 14.6 C 0 km/h
119 08-09-2016 09:50:00 14.7 C 12.09 g/m*3 14.7 C 0 km/h
120 08-09-2016 09:55:00 14.9 C 12.24 g/m*3 14.9 C 0 km/h
121 08-09-2016 10:00:00 15 C 12.31 g/m*3 15 C 0 km/h
122 08-09-2016 10:05:00 15.2 C 12.46 g/m*3 15.2 C 0 km/h
123 08-09-2016 10:10:00 15.3 C 12.54 g/m*3 15.3 C 0 km/h
124 08-09-2016 10:15:00 15.4 C 12.61 g/m*3 15.4 C 0 km/h
125 08-09-2016 10:20:00 15.6 C 12.77 g/m*3 15.6 C 0 km/h
Sensor: Nr:Datum:Temp:Abs-Feuchte:Windchill:Wind:
Aussen-T/F 126 08-09-2016 10:25:00 15.8 C 12.92 g/m*3 15.8 C 0 km/h
127 08-09-2016 10:30:00 15.9 C 13 g/m*3 15.9 C 0 km/h
128 08-09-2016 10:35:00 16.1 C 13.16 g/m*3 16.1 C 0 km/h
129 08-09-2016 10:40:00 16.2 C 13.24 g/m*3 16.2 C 0 km/h
130 08-09-2016 10:45:00 16.4 C 13.4 g/m*3 16.4 C 0 km/h
131 08-09-2016 10:50:00 16.6 C 13.56 g/m*3 16.6 C 0 km/h
132 08-09-2016 10:55:00 16.8 C 13.73 g/m*3 16.8 C 0 km/h
133 08-09-2016 11:00:00 17 C 13.89 g/m*3 17 C 0 km/h
134 08-09-2016 11:05:00 17.2 C 13.91 g/m*3 17.2 C 0 km/h
135 08-09-2016 11:10:00 17.3 C 14 g/m*3 17.3 C 0 km/h
136 08-09-2016 11:15:00 17.7 C 14.18 g/m*3 17.7 C 0 km/h
137 08-09-2016 11:20:00 17.9 C 14.35 g/m*3 17.9 C 0 km/h
138 08-09-2016 11:25:00 18.2 C 14.46 g/m*3 18.2 C 0 km/h
139 08-09-2016 11:30:00 18.3 C 14.38 g/m*3 18.3 C 0 km/h
140 08-09-2016 11:35:00 18.7 C 14.41 g/m*3 18.7 C 0 km/h
141 08-09-2016 11:40:00 19 C 14.67 g/m*3 19 C 0 km/h
142 08-09-2016 11:45:00 19.3 C 14.6 g/m*3 19.3 C 1.6 km/h
143 08-09-2016 11:50:00 19.6 C 14.86 g/m*3 19.6 C 0 km/h
144 08-09-2016 11:55:00 19.8 C 15.2 g/m*3 19.8 C 0 km/h
145 08-09-2016 12:00:00 20.1 C 15.3 g/m*3 20.1 C 1.6 km/h
146 08-09-2016 12:05:00 20.3 C 14.95 g/m*3 20.3 C 1.6 km/h
147 08-09-2016 12:10:00 20.6 C 15.03 g/m*3 20.6 C 1.6 km/h
148 08-09-2016 12:15:00 20.8 C 15.21 g/m*3 20.8 C 0 km/h
149 08-09-2016 12:20:00 20.9 C 14.75 g/m*3 20.9 C 1.6 km/h
150 08-09-2016 12:25:00 21.1 C 14.74 g/m*3 21.1 C 3.2 km/h
Sensor: Nr:Datum:Temp:Abs-Feuchte:Windchill:Wind:
Aussen-T/F 151 08-09-2016 12:30:00 21.3 C 14.73 g/m*3 21.3 C 3.2 km/h
152 08-09-2016 12:35:00 21.7 C 14.5 g/m*3 21.7 C 9.7 km/h
153 08-09-2016 12:40:00 22 C 14.36 g/m*3 22 C 4.8 km/h
154 08-09-2016 12:45:00 22.4 C 14.5 g/m*3 22.4 C 8.1 km/h
155 08-09-2016 12:50:00 22.8 C 14.63 g/m*3 22.8 C 6.4 km/h
156 08-09-2016 12:55:00 22.9 C 14.31 g/m*3 22.9 C 4.8 km/h
157 08-09-2016 13:00:00 23.2 C 14.97 g/m*3 23.2 C 6.4 km/h
158 08-09-2016 13:05:00 23.3 C 15.05 g/m*3 23.3 C 6.4 km/h
159 08-09-2016 13:10:00 23.5 C 13.96 g/m*3 23.5 C 12.9 km/h
160 08-09-2016 13:15:00 23.8 C 15.06 g/m*3 23.8 C 12.9 km/h
161 08-09-2016 13:20:00 23.9 C 13.85 g/m*3 23.9 C 8.1 km/h
162 08-09-2016 13:25:00 24.2 C 14.08 g/m*3 24.2 C 8.1 km/h
163 08-09-2016 13:30:00 24.4 C 14.02 g/m*3 24.4 C 9.7 km/h
164 08-09-2016 13:35:00 24.7 C 14.26 g/m*3 24.7 C 6.4 km/h
165 08-09-2016 13:40:00 24.9 C 13.96 g/m*3 24.9 C 11.3 km/h
166 08-09-2016 13:45:00 25.1 C 13.89 g/m*3 25.1 C 12.9 km/h
167 08-09-2016 13:50:00 25.3 C 14.51 g/m*3 25.3 C 8.1 km/h
168 08-09-2016 13:55:00 25.3 C 13.81 g/m*3 25.3 C 12.9 km/h
169 08-09-2016 14:00:00 25.4 C 14.83 g/m*3 25.4 C 9.7 km/h
170 08-09-2016 14:05:00 25.4 C 14.13 g/m*3 25.4 C 9.7 km/h
171 08-09-2016 14:10:00 25.6 C 13.81 g/m*3 25.6 C 9.7 km/h
172 08-09-2016 14:15:00 25.8 C 13.96 g/m*3 25.8 C 9.7 km/h
173 08-09-2016 14:20:00 25.9 C 14.28 g/m*3 25.9 C 8.1 km/h
174 08-09-2016 14:25:00 26 C 13.63 g/m*3 26 C 11.3 km/h
175 08-09-2016 14:30:00 26.2 C 14.28 g/m*3 26.2 C 8.1 km/h
Sensor: Nr:Datum:Temp:Abs-Feuchte:Windchill:Wind:
Aussen-T/F 176 08-09-2016 14:35:00 26.2 C 13.79 g/m*3 26.2 C 11.3 km/h
177 08-09-2016 14:40:00 26.3 C 14.61 g/m*3 26.3 C 8.1 km/h
178 08-09-2016 14:45:00 26.4 C 14.44 g/m*3 26.4 C 8.1 km/h
179 08-09-2016 14:50:00 26.5 C 14.52 g/m*3 26.5 C 9.7 km/h
180 08-09-2016 14:55:00 26.6 C 15.1 g/m*3 26.6 C 4.8 km/h
181 08-09-2016 15:00:00 26.5 C 14.02 g/m*3 26.5 C 12.9 km/h
182 08-09-2016 15:05:00 26.6 C 14.1 g/m*3 26.6 C 8.1 km/h
183 08-09-2016 15:10:00 26.7 C 14.43 g/m*3 26.7 C 11.3 km/h
184 08-09-2016 15:15:00 26.8 C 15.02 g/m*3 26.8 C 8.1 km/h
185 08-09-2016 15:20:00 26.7 C 14.43 g/m*3 26.7 C 11.3 km/h
186 08-09-2016 15:25:00 26.7 C 14.17 g/m*3 26.7 C 11.3 km/h
187 08-09-2016 15:30:00 26.7 C 14.17 g/m*3 26.7 C 6.4 km/h
188 08-09-2016 15:35:00 26.8 C 14.51 g/m*3 26.8 C 6.4 km/h
189 08-09-2016 15:40:00 26.8 C 15.02 g/m*3 26.8 C 8.1 km/h
190 08-09-2016 15:45:00 26.8 C 14.25 g/m*3 26.8 C 11.3 km/h
191 08-09-2016 15:50:00 27 C 14.15 g/m*3 27 C 12.9 km/h
192 08-09-2016 15:55:00 27.1 C 13.97 g/m*3 27.1 C 6.4 km/h
193 08-09-2016 16:00:00 27.2 C 13.79 g/m*3 27.2 C 16.1 km/h
194 08-09-2016 16:05:00 27.3 C 13.61 g/m*3 27.3 C 11.3 km/h
195 08-09-2016 16:10:00 27.4 C 13.94 g/m*3 27.4 C 8.1 km/h
196 08-09-2016 16:15:00 27.6 C 14.37 g/m*3 27.6 C 12.9 km/h
197 08-09-2016 16:20:00 27.7 C 13.91 g/m*3 27.7 C 14.5 km/h
198 08-09-2016 16:25:00 27.9 C 14.87 g/m*3 27.9 C 11.3 km/h
199 08-09-2016 16:30:00 27.9 C 14.06 g/m*3 27.9 C 11.3 km/h
200 08-09-2016 16:35:00 28.1 C 14.22 g/m*3 28.1 C 9.7 km/h
Sensor: Nr:Datum:Temp:Abs-Feuchte:Windchill:Wind:
Aussen-T/F 201 08-09-2016 16:40:00 28.2 C 14.57 g/m*3 28.2 C 8.1 km/h
202 08-09-2016 16:45:00 28.4 C 14.18 g/m*3 28.4 C 12.9 km/h
203 08-09-2016 16:50:00 28.7 C 14.98 g/m*3 28.7 C 17.7 km/h
204 08-09-2016 16:55:00 28.8 C 14.77 g/m*3 28.8 C 4.8 km/h
205 08-09-2016 17:00:00 29.1 C 15.88 g/m*3 29.1 C 4.8 km/h
206 08-09-2016 17:05:00 29.3 C 15.18 g/m*3 29.3 C 1.6 km/h
207 08-09-2016 17:10:00 29.3 C 14.89 g/m*3 29.3 C 4.8 km/h
208 08-09-2016 17:15:00 29.4 C 14.68 g/m*3 29.4 C 6.4 km/h
209 08-09-2016 17:20:00 29.4 C 14.97 g/m*3 29.4 C 8.1 km/h
210 08-09-2016 17:25:00 29.6 C 14.54 g/m*3 29.6 C 4.8 km/h
211 08-09-2016 17:30:00 29.9 C 15.38 g/m*3 29.9 C 4.8 km/h
212 08-09-2016 17:35:00 29.8 C 15.6 g/m*3 29.8 C 8.1 km/h
213 08-09-2016 17:40:00 29.3 C 14.31 g/m*3 29.3 C 8.1 km/h
214 08-09-2016 17:45:00 29.2 C 15.68 g/m*3 29.2 C 1.6 km/h
215 08-09-2016 17:50:00 29.2 C 14.81 g/m*3 29.2 C 1.6 km/h
216 08-09-2016 17:55:00 29.2 C 16.26 g/m*3 29.2 C 0 km/h
217 08-09-2016 18:00:00 29.2 C 15.68 g/m*3 29.2 C 9.7 km/h
218 08-09-2016 18:05:00 28.9 C 15.43 g/m*3 28.9 C 3.2 km/h
219 08-09-2016 18:10:00 28.6 C 15.74 g/m*3 28.6 C 1.6 km/h
220 08-09-2016 18:15:00 28.2 C 15.95 g/m*3 28.2 C 0 km/h
221 08-09-2016 18:20:00 27.7 C 15.51 g/m*3 27.7 C 0 km/h
222 08-09-2016 18:25:00 27.2 C 15.35 g/m*3 27.2 C 0 km/h
223 08-09-2016 18:30:00 26.6 C 15.35 g/m*3 26.6 C 0 km/h
224 08-09-2016 18:35:00 26.2 C 15.51 g/m*3 26.2 C 0 km/h
225 08-09-2016 18:40:00 26 C 15.58 g/m*3 26 C 0 km/h
Sensor: Nr:Datum:Temp:Abs-Feuchte:Windchill:Wind:
Aussen-T/F 226 08-09-2016 18:45:00 25.9 C 15.25 g/m*3 25.9 C 1.6 km/h
227 08-09-2016 18:50:00 25.8 C 15.41 g/m*3 25.8 C 0 km/h
228 08-09-2016 18:55:00 25.8 C 15.41 g/m*3 25.8 C 0 km/h
229 08-09-2016 19:00:00 25.8 C 15.65 g/m*3 25.8 C 1.6 km/h
230 08-09-2016 19:05:00 25.7 C 15.32 g/m*3 25.7 C 0 km/h
231 08-09-2016 19:10:00 25.7 C 15.32 g/m*3 25.7 C 0 km/h
232 08-09-2016 19:15:00 25.5 C 15.15 g/m*3 25.5 C 0 km/h
233 08-09-2016 19:20:00 25.3 C 15.22 g/m*3 25.3 C 0 km/h
234 08-09-2016 19:25:00 25.2 C 15.13 g/m*3 25.2 C 0 km/h
235 08-09-2016 19:30:00 25 C 14.96 g/m*3 25 C 0 km/h
236 08-09-2016 19:35:00 24.8 C 14.8 g/m*3 24.8 C 0 km/h
237 08-09-2016 19:40:00 24.6 C 14.85 g/m*3 24.6 C 1.6 km/h
238 08-09-2016 19:45:00 24.3 C 14.83 g/m*3 24.3 C 1.6 km/h
239 08-09-2016 19:50:00 24 C 14.79 g/m*3 24 C 1.6 km/h
240 08-09-2016 19:55:00 23.8 C 14.41 g/m*3 23.8 C 0 km/h
241 08-09-2016 20:00:00 23.7 C 14.54 g/m*3 23.7 C 0 km/h
242 08-09-2016 20:05:00 23.6 C 14.68 g/m*3 23.6 C 1.6 km/h
243 08-09-2016 20:10:00 23.4 C 14.72 g/m*3 23.4 C 1.6 km/h
244 08-09-2016 20:15:00 23.2 C 14.76 g/m*3 23.2 C 1.6 km/h
245 08-09-2016 20:20:00 23.1 C 14.47 g/m*3 23.1 C 1.6 km/h
246 08-09-2016 20:25:00 23 C 14.39 g/m*3 23 C 1.6 km/h
247 08-09-2016 20:30:00 22.9 C 14.31 g/m*3 22.9 C 1.6 km/h
248 08-09-2016 20:35:00 22.9 C 14.31 g/m*3 22.9 C 1.6 km/h
249 08-09-2016 20:40:00 22.8 C 14.22 g/m*3 22.8 C 1.6 km/h
250 08-09-2016 20:45:00 22.8 C 14.22 g/m*3 22.8 C 1.6 km/h
Sensor: Nr:Datum:Temp:Abs-Feuchte:Windchill:Wind:
Aussen-T/F 251 08-09-2016 20:50:00 22.7 C 14.14 g/m*3 22.7 C 0 km/h
252 08-09-2016 20:55:00 22.6 C 14.26 g/m*3 22.6 C 0 km/h
253 08-09-2016 21:00:00 22.4 C 14.3 g/m*3 22.4 C 0 km/h
254 08-09-2016 21:05:00 22.2 C 14.14 g/m*3 22.2 C 0 km/h
255 08-09-2016 21:10:00 22.1 C 14.25 g/m*3 22.1 C 0 km/h
256 08-09-2016 21:15:00 21.9 C 14.09 g/m*3 21.9 C 0 km/h
257 08-09-2016 21:20:00 21.8 C 14.01 g/m*3 21.8 C 0 km/h
258 08-09-2016 21:25:00 21.7 C 13.93 g/m*3 21.7 C 0 km/h
259 08-09-2016 21:30:00 21.7 C 13.93 g/m*3 21.7 C 0 km/h
260 08-09-2016 21:35:00 21.7 C 13.93 g/m*3 21.7 C 0 km/h
261 08-09-2016 21:40:00 21.6 C 13.85 g/m*3 21.6 C 0 km/h
262 08-09-2016 21:45:00 21.6 C 14.03 g/m*3 21.6 C 0 km/h
263 08-09-2016 21:50:00 21.4 C 13.87 g/m*3 21.4 C 0 km/h
264 08-09-2016 21:55:00 21.2 C 13.9 g/m*3 21.2 C 0 km/h
265 08-09-2016 22:00:00 21.1 C 13.82 g/m*3 21.1 C 0 km/h
266 08-09-2016 22:05:00 20.9 C 13.84 g/m*3 20.9 C 0 km/h
267 08-09-2016 22:10:00 20.7 C 13.68 g/m*3 20.7 C 0 km/h
268 08-09-2016 22:15:00 20.6 C 13.6 g/m*3 20.6 C 0 km/h
269 08-09-2016 22:20:00 20.4 C 13.62 g/m*3 20.4 C 0 km/h
270 08-09-2016 22:25:00 20.3 C 13.72 g/m*3 20.3 C 0 km/h
271 08-09-2016 22:30:00 20.1 C 13.56 g/m*3 20.1 C 0 km/h
272 08-09-2016 22:35:00 19.9 C 13.4 g/m*3 19.9 C 0 km/h
273 08-09-2016 22:40:00 19.8 C 13.49 g/m*3 19.8 C 0 km/h
274 08-09-2016 22:45:00 19.7 C 13.41 g/m*3 19.7 C 0 km/h
275 08-09-2016 22:50:00 19.6 C 13.51 g/m*3 19.6 C 0 km/h
Sensor: Nr:Datum:Temp:Abs-Feuchte:Windchill:Wind:
Aussen-T/F 276 08-09-2016 22:55:00 19.4 C 13.35 g/m*3 19.4 C 0 km/h
277 08-09-2016 23:00:00 19.3 C 13.44 g/m*3 19.3 C 0 km/h
278 08-09-2016 23:05:00 19.2 C 13.36 g/m*3 19.2 C 0 km/h
279 08-09-2016 23:10:00 19.1 C 13.28 g/m*3 19.1 C 0 km/h
280 08-09-2016 23:15:00 19.1 C 13.28 g/m*3 19.1 C 0 km/h
281 08-09-2016 23:20:00 18.9 C 13.12 g/m*3 18.9 C 0 km/h
282 08-09-2016 23:25:00 18.9 C 13.12 g/m*3 18.9 C 0 km/h
283 08-09-2016 23:30:00 18.9 C 13.28 g/m*3 18.9 C 0 km/h
284 08-09-2016 23:35:00 18.8 C 13.21 g/m*3 18.8 C 0 km/h
285 08-09-2016 23:40:00 18.7 C 13.13 g/m*3 18.7 C 0 km/h
286 08-09-2016 23:45:00 18.7 C 13.13 g/m*3 18.7 C 0 km/h
287 08-09-2016 23:50:00 18.8 C 13.37 g/m*3 18.8 C 0 km/h
288 08-09-2016 23:55:00 18.8 C 13.21 g/m*3 18.8 C 0 km/h

Legende:
   Min
   Max


Maximal/Minimal-Werte vom 08.09.2016 - 08.09.2016

Sensor Min Max Avg
Temp
(Aussen-T/F)
12.8 °C
08-09-2016  07:00:00
29.9 °C
08-09-2016  17:30:00
19.45 °C
Abs-Feuchte
(Aussen-T/F)
10.53 g/m*3
08-09-2016  07:00:00
16.26 g/m*3
08-09-2016  17:55:00
13.02 g/m*3
Windchill
(Aussen-T/F)
12.8 C
08-09-2016  07:00:00
29.9 C
08-09-2016  17:30:00
19.38 C

Die Daten stammen von einer Davis Vantage Pro 2 Wetter-Station und werden unter Linux mit der Software wview2wettercgi und aufbereitet. Alle Angaben erfolgen ohne Gewähr für ihre Vollständigkeit oder Richtigkeit.
Kontakt: Rainer Krienke krienke@uni-koblenz.de . Meine Webseiten an der Uni Koblenz oder privat.
Version: $Revision: 0.78 $